Météo Nord-Pas-de-Calais   La météo au plus près de chez vous

Station météorologique

Observations météo à Toulouse-Blagnac (31069)

31069001 151 m Dernier relevé à 19:30
35.7°C
Humidité 23 % Vent 7.6 km/h 1017.2 hPa

Journée consultée

Dimanche 6 Septembre 2026

Synthèse de la journée

Périodes de référence en UTC

Température maximale

37.9°C

à 17:24

06h 06h

Température minimale

19.5°C

à 05:42

18h 18h

Rafale maximale

30 km/h

à 19:30

00h 00h

Précipitations

0 mm

Cumul quotidien

06h 06h

Ensoleillement

7h 18 mins

Durée quotidienne

00h 00h

Graphiques de la journée

Heure locale Réduire

Données détaillées

Relevés météo

Pas de 6 minutes Afficher les relevés infra-horaires
Relevés météo détaillés à Toulouse-Blagnac pour le Dimanche 6 Septembre 2026
Heure Température °C Point de rosée °C Humidité % Vent moyen (raf.), km/h Précipitations mm Température à 10 cm °C Température à 20 cm °C Température à 50 cm °C Température à 100 cm °C Visibilité m État du sol   Hauteur neige cm Ensoleillement min Rayonnement global W/m² Pression hPa Nébulosité Octas
19:30 35.7 °C 11.4 °C 23 % 21 km/h (30 km/h) 0 mm0 mm 28.4 °C 26.7 °C 24.7 °C 23.2 °C 60000 m 0   0 cm 6 min 36.1 W/m² 1017.9 hPa
19:24 35.9 °C 10.9 °C 22 % 21 km/h (28 km/h) 0 mm0 mm 28.4 °C 26.7 °C 24.7 °C 23.3 °C 60000 m 0   0 cm 6 min 35.9 W/m² 1017.9 hPa
19:18 36.2 °C 10.4 °C 21 % 20 km/h (24 km/h) 0 mm0 mm 28.4 °C 26.7 °C 24.7 °C 23.3 °C 60000 m 0   0 cm 6 min 39.9 W/m² 1017.9 hPa
19:12 36.3 °C 10.5 °C 21 % 16 km/h (24 km/h) 0 mm0 mm 28.4 °C 26.7 °C 24.7 °C 23.2 °C 60000 m 0   0 cm 4 min 46.4 W/m² 1017.9 hPa
19:06 36.2 °C 10.4 °C 21 % 13 km/h (18 km/h) 0 mm0 mm 28.4 °C 26.7 °C 24.7 °C 23.2 °C 60000 m 0   0 cm 0 min 37.4 W/m² 1017.8 hPa
19:00 36.4 °C 9.8 °C 20 % 15 km/h (21 km/h) 0 mm0 mm 28.3 °C 26.7 °C 24.7 °C 23.3 °C 60000 m 0   0 cm 0 min 39.9 W/m² 1017.7 hPa
18:54 36.6 °C 10 °C 20 % 17 km/h (21 km/h) 0 mm0 mm 28.4 °C 26.6 °C 24.6 °C 23.2 °C 60000 m 0   0 cm 0 min 45.2 W/m² 1017.7 hPa
18:48 36.7 °C 10.1 °C 20 % 17 km/h (26 km/h) 0 mm0 mm 28.3 °C 26.6 °C 24.7 °C 23.2 °C 60000 m 0   0 cm 1 min 53.3 W/m² 1017.6 hPa
18:42 36.7 °C 9.3 °C 19 % 19 km/h (26 km/h) 0 mm0 mm 28.4 °C 26.6 °C 24.7 °C 23.2 °C 60000 m 0   0 cm 0 min 50.5 W/m² 1017.5 hPa
18:36 36.8 °C 10.2 °C 20 % 13 km/h (24 km/h) 0 mm0 mm 28.3 °C 26.6 °C 24.7 °C 23.2 °C 60000 m 0   0 cm 0 min 57.5 W/m² 1017.4 hPa
18:30 37.1 °C 12.5 °C 23 % 8 km/h (18 km/h) 0 mm0 mm 28.3 °C 26.6 °C 24.7 °C 23.2 °C 60000 m 0   0 cm 4 min 77 W/m² 1017.2 hPa
18:24 37 °C 13.1 °C 24 % 8 km/h (12 km/h) 0 mm0 mm 28.3 °C 26.5 °C 24.7 °C 23.2 °C 60000 m 0   0 cm 0 min 51.1 W/m² 1017.1 hPa
18:18 37.3 °C 12.7 °C 23 % 4 km/h (12 km/h) 0 mm0 mm 28.3 °C 26.5 °C 24.7 °C 23.2 °C 60000 m 0   0 cm 0 min 54.1 W/m² 1017.1 hPa
18:12 37.6 °C 12.9 °C 23 % 4 km/h (8 km/h) 0 mm0 mm 28.3 °C 26.5 °C 24.7 °C 23.2 °C 60000 m 0   0 cm 2 min 78.3 W/m² 1017.1 hPa
18:06 37.5 °C 12.9 °C 23 % 6 km/h (15 km/h) 0 mm0 mm 28.2 °C 26.5 °C 24.7 °C 23.3 °C 60000 m 0   0 cm 5 min 92.9 W/m² 1017.1 hPa
18:00 37.4 °C 12.8 °C 23 % 6 km/h (15 km/h) 0 mm0 mm 28.2 °C 26.4 °C 24.6 °C 23.2 °C 60000 m 0   0 cm 3 min 93.9 W/m² 1017.1 hPa
17:54 37.3 °C 12.7 °C 23 % 7 km/h (12 km/h) 0 mm0 mm 28.2 °C 26.4 °C 24.7 °C 23.2 °C 60000 m 0   0 cm 6 min 107.2 W/m² 1017 hPa
17:48 37.2 °C 12.6 °C 23 % 8 km/h (15 km/h) 0 mm0 mm 28.2 °C 26.4 °C 24.7 °C 23.3 °C 60000 m 0   0 cm 0 min 85.5 W/m² 1016.9 hPa
17:42 37.5 °C 12.9 °C 23 % 7 km/h (15 km/h) 0 mm0 mm 28.2 °C 26.4 °C 24.7 °C 23.3 °C 60000 m 0   0 cm 0 min 100.9 W/m² 1017 hPa
17:36 37.6 °C 12.3 °C 22 % 6 km/h (11 km/h) 0 mm0 mm 28.2 °C 26.3 °C 24.7 °C 23.2 °C 11780 m 0   0 cm 5 min 115.1 W/m² 1016.9 hPa
17:30 37.7 °C 12.3 °C 22 % 5 km/h (9 km/h) 0 mm0 mm 28.1 °C 26.3 °C 24.7 °C 23.3 °C 11270 m 0   0 cm 6 min 123.5 W/m² 1017 hPa
17:24 37.9 °C 12.5 °C 22 % 4 km/h (10 km/h) 0 mm0 mm 28.1 °C 26.3 °C 24.7 °C 23.2 °C 7130 m 0   0 cm 6 min 171.8 W/m² 1017 hPa
17:18 37.3 °C 13.3 °C 24 % 3 km/h (7 km/h) 0 mm0 mm 28.1 °C 26.3 °C 24.7 °C 23.3 °C 13840 m 0   0 cm 5 min 167.9 W/m² 1017 hPa
17:12 36.9 °C 12.4 °C 23 % 3 km/h (7 km/h) 0 mm0 mm 28.1 °C 26.2 °C 24.7 °C 23.2 °C 18020 m 0   0 cm 1 min 114.2 W/m² 1017 hPa
17:06 36.8 °C 12.3 °C 23 % 4 km/h (7 km/h) 0 mm0 mm 28 °C 26.2 °C 24.7 °C 23.2 °C 60000 m 0   0 cm 0 min 108.5 W/m² 1017.1 hPa
17:00 36.7 °C 12.8 °C 24 % 5 km/h (9 km/h) 0 mm0 mm 28 °C 26.1 °C 24.7 °C 23.2 °C 60000 m 0   0 cm 0 min 100.1 W/m² 1017.1 hPa
16:54 36.8 °C 12.9 °C 24 % 5 km/h (8 km/h) 0 mm0 mm 28 °C 26.1 °C 24.7 °C 23.2 °C 42080 m 0   0 cm 0 min 110 W/m² 1017 hPa
16:48 36.9 °C 12.4 °C 23 % 3 km/h (7 km/h) 0 mm0 mm 28 °C 26.1 °C 24.7 °C 23.2 °C 42080 m 0   0 cm 0 min 117.3 W/m² 1017 hPa
16:42 36.7 °C 12.8 °C 24 % 4 km/h (11 km/h) 0 mm0 mm 27.9 °C 26.1 °C 24.7 °C 23.2 °C 60000 m 0   0 cm 0 min 106.4 W/m² 1017.1 hPa
16:36 36.6 °C 12.8 °C 24 % 5 km/h (11 km/h) 0 mm0 mm 27.9 °C 26 °C 24.7 °C 23.2 °C 60000 m 0   0 cm 0 min 86.7 W/m² 1017.2 hPa
16:30 36.7 °C 12.2 °C 23 % 5 km/h (11 km/h) 0 mm0 mm 27.8 °C 26 °C 24.7 °C 23.2 °C 60000 m 0   0 cm 0 min 86.3 W/m² 1017.2 hPa
16:24 36.8 °C 12.3 °C 23 % 5 km/h (9 km/h) 0 mm0 mm 27.8 °C 26 °C 24.7 °C 23.2 °C 60000 m 0   0 cm 0 min 95.9 W/m² 1017.1 hPa
16:18 36.8 °C 12.3 °C 23 % 5 km/h (8 km/h) 0 mm0 mm 27.7 °C 25.9 °C 24.7 °C 23.2 °C 17660 m 0   0 cm 0 min 102.6 W/m² 1017.1 hPa
16:12 36.8 °C 12.3 °C 23 % 6 km/h (10 km/h) 0 mm0 mm 27.7 °C 25.9 °C 24.7 °C 23.2 °C 60000 m 0   0 cm 0 min 120.1 W/m² 1017.1 hPa
16:06 36.8 °C 11.6 °C 22 % 4 km/h (10 km/h) 0 mm0 mm 27.6 °C 25.9 °C 24.7 °C 23.2 °C 60000 m 0   0 cm 0 min 115.3 W/m² 1017.2 hPa
16:00 36.9 °C 12.4 °C 23 % 4 km/h (9 km/h) 0 mm0 mm 27.6 °C 25.8 °C 24.7 °C 23.2 °C 19850 m 0   0 cm 0 min 127.7 W/m² 1017.1 hPa
15:54 37.3 °C 12 °C 22 % 5 km/h (12 km/h) 0 mm0 mm 27.5 °C 25.8 °C 24.7 °C 23.2 °C 17000 m 0   0 cm 6 min 237.1 W/m² 1017.1 hPa
15:48 37 °C 12.4 °C 23 % 5 km/h (12 km/h) 0 mm0 mm 27.5 °C 25.8 °C 24.7 °C 23.3 °C 15830 m 0   0 cm 6 min 257.2 W/m² 1017 hPa
15:42 36.6 °C 12.8 °C 24 % 5 km/h (9 km/h) 0 mm0 mm 27.4 °C 25.8 °C 24.7 °C 23.3 °C 60000 m 0   0 cm 4 min 201.9 W/m² 1017.1 hPa
15:36 36.1 °C 13 °C 25 % 7 km/h (12 km/h) 0 mm0 mm 27.4 °C 25.7 °C 24.7 °C 23.2 °C 60000 m 0   0 cm 0 min 129.4 W/m² 1017.2 hPa
15:30 36.1 °C 13 °C 25 % 8 km/h (12 km/h) 0 mm0 mm 27.3 °C 25.7 °C 24.7 °C 23.2 °C 60000 m 0   0 cm 0 min 138.3 W/m² 1017.2 hPa
15:24 35.9 °C 12.8 °C 25 % 10 km/h (15 km/h) 0 mm0 mm 27.3 °C 25.6 °C 24.7 °C 23.2 °C 60000 m 0   0 cm 0 min 108.7 W/m² 1017.2 hPa
15:18 36 °C 12.9 °C 25 % 11 km/h (18 km/h) 0 mm0 mm 27.2 °C 25.6 °C 24.7 °C 23.2 °C 18310 m 0   0 cm 0 min 107.7 W/m² 1017.2 hPa
15:12 36.2 °C 13 °C 25 % 12 km/h (19 km/h) 0 mm0 mm 27.1 °C 25.6 °C 24.7 °C 23.3 °C 18310 m 0   0 cm 0 min 142.1 W/m² 1017.2 hPa
15:06 36.4 °C 13.2 °C 25 % 12 km/h (19 km/h) 0 mm0 mm 27 °C 25.5 °C 24.7 °C 23.2 °C 60000 m 0   0 cm 0 min 151.4 W/m² 1017.2 hPa
15:00 36.5 °C 13.3 °C 25 % 13 km/h (19 km/h) 0 mm0 mm 26.9 °C 25.5 °C 24.7 °C 23.2 °C 60000 m 0   0 cm 1 min 160.1 W/m² 1017.3 hPa
14:54 36.8 °C 12.9 °C 24 % 10 km/h (17 km/h) 0 mm0 mm 26.9 °C 25.5 °C 24.7 °C 23.2 °C 60000 m 0   0 cm 3 min 189.3 W/m² 1017.4 hPa
14:48 37 °C 13.7 °C 25 % 11 km/h (20 km/h) 0 mm0 mm 26.8 °C 25.4 °C 24.7 °C 23.2 °C 17700 m 0   0 cm 5 min 238.3 W/m² 1017.4 hPa
14:42 36.7 °C 13.5 °C 25 % 12 km/h (20 km/h) 0 mm0 mm 26.7 °C 25.4 °C 24.7 °C 23.3 °C 11860 m 0   0 cm 6 min 272 W/m² 1017.5 hPa
14:36 36.6 °C 13.4 °C 25 % 12 km/h (19 km/h) 0 mm0 mm 26.6 °C 25.4 °C 24.7 °C 23.2 °C 19240 m 0   0 cm 6 min 288.1 W/m² 1017.5 hPa
14:30 36.4 °C 13.2 °C 25 % 11 km/h (18 km/h) 0 mm0 mm 26.5 °C 25.3 °C 24.7 °C 23.2 °C 46340 m 0   0 cm 6 min 285.1 W/m² 1017.5 hPa
14:24 36.4 °C 13.8 °C 26 % 10 km/h (18 km/h) 0 mm0 mm 26.5 °C 25.3 °C 24.7 °C 23.2 °C 46340 m 0   0 cm 6 min 282.7 W/m² 1017.6 hPa
14:18 36.2 °C 13.6 °C 26 % 12 km/h (22 km/h) 0 mm0 mm 26.4 °C 25.3 °C 24.7 °C 23.2 °C 19170 m 0   0 cm 6 min 282.9 W/m² 1017.6 hPa
14:12 36.6 °C 14 °C 26 % 14 km/h (22 km/h) 0 mm0 mm 26.3 °C 25.2 °C 24.7 °C 23.2 °C 19220 m 0   0 cm 6 min 281.8 W/m² 1017.7 hPa
14:06 36.3 °C 13.7 °C 26 % 12 km/h (20 km/h) 0 mm0 mm 26.2 °C 25.3 °C 24.8 °C 23.3 °C 18150 m 0   0 cm 6 min 281.8 W/m² 1017.7 hPa
14:00 35.8 °C 13.9 °C 27 % 13 km/h (21 km/h) 0 mm0 mm 26.2 °C 25.2 °C 24.7 °C 23.2 °C 19380 m 0   0 cm 6 min 282 W/m² 1017.7 hPa
13:54 35.9 °C 14 °C 27 % 14 km/h (21 km/h) 0 mm0 mm 26.1 °C 25.2 °C 24.7 °C 23.2 °C 60000 m 0   0 cm 6 min 281.3 W/m² 1017.8 hPa
13:48 35.7 °C 13.8 °C 27 % 15 km/h (22 km/h) 0 mm0 mm 26 °C 25.2 °C 24.7 °C 23.2 °C 60000 m 0   0 cm 6 min 281.6 W/m² 1017.9 hPa
13:42 35.4 °C 13.5 °C 27 % 14 km/h (22 km/h) 0 mm0 mm 25.9 °C 25.2 °C 24.7 °C 23.2 °C 18640 m 0   0 cm 6 min 281.1 W/m² 1017.9 hPa
13:36 35.7 °C 13.8 °C 27 % 14 km/h (26 km/h) 0 mm0 mm 25.9 °C 25.2 °C 24.8 °C 23.3 °C 17090 m 0   0 cm 6 min 279.9 W/m² 1018 hPa
13:30 35.1 °C 13.9 °C 28 % 14 km/h (26 km/h) 0 mm0 mm 25.8 °C 25.1 °C 24.7 °C 23.2 °C 17710 m 0   0 cm 6 min 281.3 W/m² 1018.1 hPa
13:24 35 °C 13.2 °C 27 % 12 km/h (21 km/h) 0 mm0 mm 25.7 °C 25.1 °C 24.8 °C 23.2 °C 19570 m 0   0 cm 6 min 272 W/m² 1018.2 hPa
13:18 34.7 °C 14.1 °C 29 % 11 km/h (18 km/h) 0 mm0 mm 25.7 °C 25.1 °C 24.8 °C 23.2 °C 60000 m 0   0 cm 6 min 277.7 W/m² 1018.3 hPa
13:12 34.4 °C 14.3 °C 30 % 12 km/h (18 km/h) 0 mm0 mm 25.6 °C 25.1 °C 24.8 °C 23.2 °C 47820 m 0   0 cm 6 min 281.3 W/m² 1018.4 hPa
13:06 34.3 °C 14.2 °C 30 % 12 km/h (19 km/h) 0 mm0 mm 25.5 °C 25.1 °C 24.8 °C 23.2 °C 47820 m 0   0 cm 6 min 281.1 W/m² 1018.4 hPa
13:00 33.8 °C 13.8 °C 30 % 12 km/h (21 km/h) 0 mm0 mm 25.5 °C 25 °C 24.7 °C 23.2 °C 19890 m 0   0 cm 6 min 275.3 W/m² 1018.5 hPa
12:54 33.8 °C 14.8 °C 32 % 12 km/h (21 km/h) 0 mm0 mm 25.5 °C 25.1 °C 24.8 °C 23.2 °C 60000 m 0   0 cm 6 min 273.7 W/m² 1018.5 hPa
12:48 33.4 °C 14.5 °C 32 % 14 km/h (21 km/h) 0 mm0 mm 25.3 °C 25 °C 24.8 °C 23.2 °C 16770 m 0   0 cm 6 min 269.3 W/m² 1018.6 hPa
12:42 33 °C 14.1 °C 32 % 15 km/h (22 km/h) 0 mm0 mm 25.3 °C 25 °C 24.8 °C 23.2 °C 19770 m 0   0 cm 5 min 253.7 W/m² 1018.8 hPa
12:36 32.8 °C 13.9 °C 32 % 15 km/h (22 km/h) 0 mm0 mm 25.2 °C 25 °C 24.8 °C 23.2 °C 11550 m 0   0 cm 5 min 246.6 W/m² 1018.9 hPa
12:30 32.8 °C 13.9 °C 32 % 13 km/h (22 km/h) 0 mm0 mm 25.2 °C 25 °C 24.8 °C 23.2 °C 10970 m 0   0 cm 5 min 250.9 W/m² 1019.1 hPa
12:24 32.4 °C 14.1 °C 33 % 13 km/h (21 km/h) 0 mm0 mm 25.1 °C 25 °C 24.8 °C 23.2 °C 60000 m 0   0 cm 6 min 262.5 W/m² 1019.1 hPa
12:18 32.3 °C 14 °C 33 % 15 km/h (21 km/h) 0 mm0 mm 25.1 °C 25 °C 24.8 °C 23.2 °C 60000 m 0   0 cm 6 min 256 W/m² 1019.1 hPa
12:12 32.4 °C 14.5 °C 34 % 14 km/h (23 km/h) 0 mm0 mm 25.1 °C 25 °C 24.8 °C 23.2 °C 60000 m 0   0 cm 6 min 256.1 W/m² 1019.1 hPa
12:06 31.9 °C 14.5 °C 35 % 8 km/h (18 km/h) 0 mm0 mm 25 °C 25 °C 24.8 °C 23.2 °C 60000 m 0   0 cm 6 min 252.6 W/m² 1019.2 hPa
12:00 31.2 °C 14.4 °C 36 % 7 km/h (14 km/h) 0 mm0 mm 25 °C 25 °C 24.7 °C 23.2 °C 60000 m 0   0 cm 2 min 161.7 W/m² 1019.4 hPa
11:54 31.4 °C 14.5 °C 36 % 9 km/h (14 km/h) 0 mm0 mm 24.9 °C 25 °C 24.8 °C 23.2 °C 60000 m 0   0 cm 4 min 179.6 W/m² 1019.4 hPa
11:48 31.4 °C 14.5 °C 36 % 8 km/h (14 km/h) 0 mm0 mm 24.9 °C 25 °C 24.8 °C 23.2 °C 60000 m 0   0 cm 6 min 250.7 W/m² 1019.5 hPa
11:42 31.4 °C 14.5 °C 36 % 6 km/h (13 km/h) 0 mm0 mm 24.9 °C 25 °C 24.8 °C 23.3 °C 60000 m 0   0 cm 6 min 237.6 W/m² 1019.6 hPa
11:36 31.3 °C 14.4 °C 36 % 7 km/h (15 km/h) 0 mm0 mm 24.9 °C 25 °C 24.8 °C 23.2 °C 60000 m 0   0 cm 6 min 231.7 W/m² 1019.7 hPa
11:30 30.8 °C 14.4 °C 37 % 10 km/h (20 km/h) 0 mm0 mm 24.8 °C 25 °C 24.8 °C 23.2 °C 60000 m 0   0 cm 6 min 241.7 W/m² 1019.7 hPa
11:24 31 °C 14.6 °C 37 % 10 km/h (20 km/h) 0 mm0 mm 24.8 °C 25 °C 24.8 °C 23.2 °C 60000 m 0   0 cm 6 min 243.7 W/m² 1019.8 hPa
11:18 30.2 °C 14.3 °C 38 % 10 km/h (15 km/h) 0 mm0 mm 24.8 °C 25 °C 24.8 °C 23.2 °C 60000 m 0   0 cm 6 min 240 W/m² 1019.8 hPa
11:12 29.5 °C 14.5 °C 40 % 12 km/h (21 km/h) 0 mm0 mm 24.8 °C 25 °C 24.8 °C 23.2 °C 60000 m 0   0 cm 6 min 227.9 W/m² 1020 hPa
11:06 28.3 °C 14.2 °C 42 % 14 km/h (21 km/h) 0 mm0 mm 24.8 °C 25 °C 24.8 °C 23.2 °C 60000 m 0   0 cm 5 min 159 W/m² 1019.8 hPa
11:00 28 °C 13.9 °C 42 % 12 km/h (18 km/h) 0 mm0 mm 24.8 °C 25 °C 24.8 °C 23.2 °C 60000 m 0   0 cm 0 min 105.5 W/m² 1019.8 hPa
10:54 28 °C 13.9 °C 42 % 12 km/h (18 km/h) 0 mm0 mm 24.7 °C 25 °C 24.8 °C 23.2 °C 60000 m 0   0 cm 1 min 119.5 W/m² 1019.9 hPa
10:48 27.7 °C 13.6 °C 42 % 10 km/h (19 km/h) 0 mm0 mm 24.7 °C 25 °C 24.8 °C 23.2 °C 60000 m 0   0 cm 0 min 89.7 W/m² 1019.9 hPa
10:42 27.7 °C 13.6 °C 42 % 12 km/h (19 km/h) 0 mm0 mm 24.7 °C 25 °C 24.8 °C 23.2 °C 60000 m 0   0 cm 0 min 88.1 W/m² 1019.9 hPa
10:36 27.5 °C 13.8 °C 43 % 14 km/h (23 km/h) 0 mm0 mm 24.7 °C 25 °C 24.8 °C 23.2 °C 60000 m 0   0 cm 0 min 101.5 W/m² 1019.9 hPa
10:30 27.4 °C 13.7 °C 43 % 14 km/h (23 km/h) 0 mm0 mm 24.7 °C 25 °C 24.8 °C 23.2 °C 60000 m 0   0 cm 0 min 108.1 W/m² 1019.9 hPa
10:24 27.1 °C 13.4 °C 43 % 15 km/h (23 km/h) 0 mm0 mm 24.6 °C 25 °C 24.8 °C 23.2 °C 60000 m 0   0 cm 3 min 134.1 W/m² 1019.8 hPa
10:18 27.1 °C 13.8 °C 44 % 14 km/h (20 km/h) 0 mm0 mm 24.6 °C 25.1 °C 24.8 °C 23.3 °C 60000 m 0   0 cm 6 min 124.3 W/m² 1019.8 hPa
10:12 26.7 °C 13.1 °C 43 % 15 km/h (22 km/h) 0 mm0 mm 24.6 °C 25 °C 24.8 °C 23.2 °C 60000 m 0   0 cm 6 min 144.9 W/m² 1019.9 hPa
10:06 26.8 °C 13.2 °C 43 % 15 km/h (22 km/h) 0 mm0 mm 24.6 °C 25 °C 24.8 °C 23.2 °C 60000 m 0   0 cm 6 min 146.1 W/m² 1019.9 hPa
10:00 26.4 °C 13.2 °C 44 % 15 km/h (22 km/h) 0 mm0 mm 24.6 °C 25.1 °C 24.8 °C 23.2 °C 60000 m 0   0 cm 6 min 116.3 W/m² 1020 hPa
09:54 26.2 °C 13 °C 44 % 14 km/h (19 km/h) 0 mm0 mm 24.6 °C 25.1 °C 24.8 °C 23.2 °C 60000 m 0   0 cm 4 min 112.8 W/m² 1019.9 hPa
09:48 25.7 °C 12.5 °C 44 % 10 km/h (19 km/h) 0 mm0 mm 24.6 °C 25.1 °C 24.8 °C 23.2 °C 60000 m 0   0 cm 1 min 71.9 W/m² 1020 hPa
09:42 25.8 °C 12.3 °C 43 % 5 km/h (9 km/h) 0 mm0 mm 24.6 °C 25.1 °C 24.8 °C 23.2 °C 60000 m 0   0 cm 0 min 59.9 W/m² 1020 hPa
09:36 25.6 °C 12.1 °C 43 % 5 km/h (8 km/h) 0 mm0 mm 24.6 °C 25.1 °C 24.8 °C 23.2 °C 60000 m 0   0 cm 5 min 117.3 W/m² 1020.1 hPa
09:30 25.5 °C 12 °C 43 % 5 km/h (8 km/h) 0 mm0 mm 24.6 °C 25.1 °C 24.8 °C 23.2 °C 60000 m 0   0 cm 6 min 120.7 W/m² 1020.1 hPa
09:24 25.1 °C 11.6 °C 43 % 5 km/h (8 km/h) 0 mm0 mm 24.6 °C 25.2 °C 24.8 °C 23.3 °C 60000 m 0   0 cm 6 min 107.8 W/m² 1020.2 hPa
09:18 25 °C 11.5 °C 43 % 4 km/h (8 km/h) 0 mm0 mm 24.6 °C 25.1 °C 24.8 °C 23.2 °C 60000 m 0   0 cm 6 min 91.3 W/m² 1020.2 hPa
09:12 24.8 °C 11.4 °C 43 % 3 km/h (5 km/h) 0 mm0 mm 24.6 °C 25.1 °C 24.8 °C 23.2 °C 60000 m 0   0 cm 6 min 84.7 W/m² 1020.2 hPa
09:06 24.5 °C 11.4 °C 44 % 3 km/h (5 km/h) 0 mm0 mm 24.6 °C 25.2 °C 24.8 °C 23.2 °C 60000 m 0   0 cm 6 min 94 W/m² 1020.2 hPa
09:00 23.7 °C 11.4 °C 46 % 3 km/h (7 km/h) 0 mm0 mm 24.6 °C 25.2 °C 24.8 °C 23.2 °C 60000 m 0   0 cm 6 min 95.1 W/m² 1020.2 hPa 8 Octas
08:54 23.3 °C 12 °C 49 % 6 km/h (10 km/h) 0 mm0 mm 24.6 °C 25.2 °C 24.8 °C 23.2 °C 60000 m 0   0 cm 6 min 85.4 W/m² 1020.4 hPa
08:48 23 °C 11.7 °C 49 % 7 km/h (10 km/h) 0 mm0 mm 24.6 °C 25.2 °C 24.8 °C 23.2 °C 60000 m 0   0 cm 6 min 66.9 W/m² 1020.4 hPa
08:42 22.9 °C 11.6 °C 49 % 8 km/h (11 km/h) 0 mm0 mm 24.6 °C 25.2 °C 24.8 °C 23.2 °C 60000 m 0   0 cm 6 min 51.6 W/m² 1020.5 hPa
08:36 22.7 °C 11.7 °C 50 % 5 km/h (11 km/h) 0 mm0 mm 24.6 °C 25.2 °C 24.8 °C 23.2 °C 60000 m 0   0 cm 1 min 36 W/m² 1020.6 hPa
08:30 22.6 °C 11 °C 48 % 4 km/h (5 km/h) 0 mm0 mm 24.7 °C 25.3 °C 24.8 °C 23.2 °C 60000 m 0   0 cm 3 min 34.7 W/m² 1020.4 hPa
08:24 22.5 °C 10.9 °C 48 % 4 km/h (6 km/h) 0 mm0 mm 24.7 °C 25.3 °C 24.8 °C 23.2 °C 60000 m 0   0 cm 6 min 40.7 W/m² 1020.2 hPa
08:18 22.5 °C 10.6 °C 47 % 5 km/h (8 km/h) 0 mm0 mm 24.7 °C 25.3 °C 24.8 °C 23.2 °C 60000 m 0   0 cm 6 min 36.8 W/m² 1020.1 hPa
08:12 22.2 °C 11 °C 49 % 6 km/h (8 km/h) 0 mm0 mm 24.7 °C 25.3 °C 24.8 °C 23.2 °C 60000 m 0   0 cm 6 min 31.7 W/m² 1019.9 hPa
08:06 21.9 °C 11 °C 50 % 5 km/h (8 km/h) 0 mm0 mm 24.7 °C 25.3 °C 24.8 °C 23.2 °C 60000 m 0   0 cm 6 min 26.9 W/m² 1019.7 hPa
08:00 21.2 °C 12.1 °C 56 % 3 km/h (5 km/h) 0 mm0 mm 24.7 °C 25.3 °C 24.8 °C 23.2 °C 60000 m 0   0 cm 6 min 21.1 W/m² 1019.9 hPa 7 Octas
07:54 21 °C 10.8 °C 52 % 2 km/h (3 km/h) 0 mm0 mm 24.7 °C 25.3 °C 24.8 °C 23.2 °C 60000 m 0   0 cm 6 min 16.2 W/m² 1019.9 hPa
07:48 20.9 °C 11 °C 53 % 2 km/h (3 km/h) 0 mm0 mm 24.7 °C 25.4 °C 24.8 °C 23.2 °C 60000 m 0   0 cm 3 min 11.6 W/m² 1019.8 hPa
07:42 20.8 °C 11.1 °C 54 % 0 km/h (3 km/h) 0 mm0 mm 24.8 °C 25.3 °C 24.8 °C 23.2 °C 60000 m 0   0 cm 0 min 5.5 W/m² 1019.8 hPa
07:36 20.9 °C 10.4 °C 51 % 2 km/h (4 km/h) 0 mm0 mm 24.8 °C 25.4 °C 24.8 °C 23.2 °C 60000 m 0   0 cm 0 min 0 W/m² 1019.7 hPa
07:30 20.7 °C 10.5 °C 52 % 2 km/h (4 km/h) 0 mm0 mm 24.8 °C 25.5 °C 24.8 °C 23.3 °C 60000 m 0   0 cm 0 min 0 W/m² 1019.7 hPa
07:24 20.7 °C 10.5 °C 52 % 2 km/h (5 km/h) 0 mm0 mm 24.8 °C 25.4 °C 24.8 °C 23.2 °C 60000 m 0   0 cm 0 min 0 W/m² 1019.6 hPa
07:18 20.8 °C 10.9 °C 53 % 3 km/h (8 km/h) 0 mm0 mm 24.8 °C 25.5 °C 24.8 °C 23.2 °C 60000 m 0   0 cm 0 min 0 W/m² 1019.6 hPa
07:12 20.9 °C 11 °C 53 % 5 km/h (8 km/h) 0 mm0 mm 24.8 °C 25.5 °C 24.8 °C 23.2 °C 60000 m 0   0 cm 0 min 0 W/m² 1019.5 hPa
07:06 21.1 °C 11.7 °C 55 % 5 km/h (8 km/h) 0 mm0 mm 24.8 °C 25.5 °C 24.8 °C 23.2 °C 60000 m 0   0 cm 0 min 0 W/m² 1019.5 hPa
07:00 21.3 °C 11.6 °C 54 % 6 km/h (8 km/h) 0 mm0 mm 24.9 °C 25.5 °C 24.8 °C 23.2 °C 60000 m 0   0 cm 0 min 0 W/m² 1019.4 hPa 8 Octas
06:54 21.3 °C 12.4 °C 57 % 6 km/h (8 km/h) 0 mm0 mm 24.9 °C 25.5 °C 24.8 °C 23.2 °C 60000 m 0   0 cm 0 min 0 W/m² 1019.3 hPa
06:48 21.2 °C 12.9 °C 59 % 5 km/h (8 km/h) 0 mm0 mm 24.9 °C 25.5 °C 24.8 °C 23.2 °C 60000 m 0   0 cm 0 min 0 W/m² 1019.4 hPa
06:42 21 °C 12.7 °C 59 % 5 km/h (6 km/h) 0 mm0 mm 24.9 °C 25.6 °C 24.8 °C 23.2 °C 60000 m 0   0 cm 0 min 0 W/m² 1019.4 hPa
06:36 20.8 °C 12.7 °C 60 % 4 km/h (6 km/h) 0 mm0 mm 25 °C 25.5 °C 24.8 °C 23.2 °C 60000 m 0   0 cm 0 min 0 W/m² 1019.4 hPa
06:30 20.5 °C 13 °C 62 % 2 km/h (5 km/h) 0 mm0 mm 25 °C 25.6 °C 24.8 °C 23.2 °C 60000 m 0   0 cm 0 min 0 W/m² 1019.5 hPa
06:24 20.6 °C 13.1 °C 62 % 3 km/h (5 km/h) 0 mm0 mm 25 °C 25.6 °C 24.8 °C 23.2 °C 60000 m 0   0 cm 0 min 0 W/m² 1019.5 hPa
06:18 20.5 °C 13.2 °C 63 % 4 km/h (6 km/h) 0 mm0 mm 25 °C 25.6 °C 24.8 °C 23.2 °C 60000 m 0   0 cm 0 min 0 W/m² 1019.5 hPa
06:12 20.4 °C 13.4 °C 64 % 5 km/h (7 km/h) 0 mm0 mm 25.1 °C 25.6 °C 24.8 °C 23.2 °C 60000 m 0   0 cm 0 min 0 W/m² 1019.5 hPa
06:06 20.3 °C 13.5 °C 65 % 4 km/h (7 km/h) 0 mm0 mm 25 °C 25.7 °C 24.8 °C 23.2 °C 60000 m 0   0 cm 0 min 0 W/m² 1019.4 hPa
06:00 20.1 °C 13.5 °C 66 % 3 km/h (4 km/h) 0 mm0 mm 25.1 °C 25.7 °C 24.8 °C 23.3 °C 60000 m 0   0 cm 0 min 0 W/m² 1019.4 hPa 7 Octas
05:54 19.9 °C 13.4 °C 66 % 3 km/h (4 km/h) 0 mm0 mm 25.1 °C 25.7 °C 24.8 °C 23.2 °C 60000 m 0   0 cm 0 min 0 W/m² 1019.5 hPa
05:48 19.5 °C 13.2 °C 67 % 2 km/h (4 km/h) 0 mm0 mm 25.1 °C 25.7 °C 24.8 °C 23.2 °C 60000 m 0   0 cm 0 min 0 W/m² 1019.7 hPa
05:42 19.5 °C 13 °C 66 % 2 km/h (4 km/h) 0 mm0 mm 25.2 °C 25.7 °C 24.8 °C 23.2 °C 60000 m 0   0 cm 0 min 0 W/m² 1019.7 hPa
05:36 19.6 °C 12.8 °C 65 % 3 km/h (5 km/h) 0 mm0 mm 25.2 °C 25.7 °C 24.8 °C 23.2 °C 60000 m 0   0 cm 0 min 0 W/m² 1019.8 hPa
05:30 20 °C 13 °C 64 % 4 km/h (5 km/h) 0 mm0 mm 25.2 °C 25.8 °C 24.8 °C 23.2 °C 60000 m 0   0 cm 0 min 0 W/m² 1019.7 hPa
05:24 20.2 °C 13.2 °C 64 % 4 km/h (5 km/h) 0 mm0 mm 25.2 °C 25.8 °C 24.8 °C 23.2 °C 60000 m 0   0 cm 0 min 0 W/m² 1019.7 hPa
05:18 20.1 °C 13.1 °C 64 % 3 km/h (4 km/h) 0 mm0 mm 25.3 °C 25.8 °C 24.8 °C 23.2 °C 60000 m 0   0 cm 0 min 0 W/m² 1019.6 hPa
05:12 20.1 °C 13.1 °C 64 % 3 km/h (4 km/h) 0 mm0 mm 25.3 °C 25.8 °C 24.8 °C 23.2 °C 60000 m 0   0 cm 0 min 0 W/m² 1019.7 hPa
05:06 20.2 °C 12.9 °C 63 % 3 km/h (4 km/h) 0 mm0 mm 25.3 °C 25.8 °C 24.8 °C 23.2 °C 60000 m 0   0 cm 0 min 0 W/m² 1019.6 hPa
05:00 20.6 °C 12.8 °C 61 % 0 km/h (3 km/h) 0 mm0 mm 25.3 °C 25.9 °C 24.8 °C 23.2 °C 60000 m 0   0 cm 0 min 0 W/m² 1019.6 hPa
04:54 20.5 °C 12.7 °C 61 % 0 km/h (0 km/h) 0 mm0 mm 25.4 °C 25.9 °C 24.8 °C 23.2 °C 60000 m 0   0 cm 0 min 0 W/m² 1019.6 hPa
04:48 20.4 °C 12.6 °C 61 % 0 km/h (0 km/h) 0 mm0 mm 25.4 °C 25.9 °C 24.8 °C 23.2 °C 60000 m 0   0 cm 0 min 0 W/m² 1019.6 hPa
04:42 20.4 °C 12.4 °C 60 % 0 km/h (0 km/h) 0 mm0 mm 25.5 °C 25.9 °C 24.8 °C 23.2 °C 60000 m 0   0 cm 0 min 0 W/m² 1019.6 hPa
04:36 20.5 °C 12.7 °C 61 % 0 km/h (2 km/h) 0 mm0 mm 25.5 °C 25.9 °C 24.8 °C 23.2 °C 60000 m 0   0 cm 0 min 0 W/m² 1019.6 hPa
04:30 20.5 °C 12.5 °C 60 % 2 km/h (4 km/h) 0 mm0 mm 25.5 °C 25.9 °C 24.8 °C 23.2 °C 60000 m 0   0 cm 0 min 0 W/m² 1019.6 hPa
04:24 20.6 °C 12.6 °C 60 % 3 km/h (5 km/h) 0 mm0 mm 25.5 °C 25.9 °C 24.8 °C 23.2 °C 60000 m 0   0 cm 0 min 0 W/m² 1019.7 hPa
04:18 20.6 °C 12.6 °C 60 % 4 km/h (5 km/h) 0 mm0 mm 25.6 °C 26 °C 24.8 °C 23.2 °C 60000 m 0   0 cm 0 min 0 W/m² 1019.8 hPa
04:12 20.6 °C 12.6 °C 60 % 4 km/h (6 km/h) 0 mm0 mm 25.6 °C 26 °C 24.8 °C 23.2 °C 60000 m 0   0 cm 0 min 0 W/m² 1019.8 hPa
04:06 20.6 °C 12.3 °C 59 % 5 km/h (6 km/h) 0 mm0 mm 25.6 °C 26 °C 24.8 °C 23.2 °C 60000 m 0   0 cm 0 min 0 W/m² 1019.8 hPa
04:00 20.5 °C 12.5 °C 60 % 6 km/h (7 km/h) 0 mm0 mm 25.6 °C 26 °C 24.8 °C 23.2 °C 60000 m 0   0 cm 0 min 0 W/m² 1019.8 hPa
03:54 20.3 °C 12.3 °C 60 % 7 km/h (9 km/h) 0 mm0 mm 25.6 °C 26 °C 24.8 °C 23.2 °C 60000 m 0   0 cm 0 min 0 W/m² 1019.8 hPa
03:48 20.2 °C 12.4 °C 61 % 9 km/h (9 km/h) 0 mm0 mm 25.7 °C 26 °C 24.7 °C 23.2 °C 60000 m 0   0 cm 0 min 0 W/m² 1019.8 hPa
03:42 20.2 °C 12.4 °C 61 % 9 km/h (10 km/h) 0 mm0 mm 25.7 °C 26.1 °C 24.8 °C 23.2 °C 60000 m 0   0 cm 0 min 0 W/m² 1019.7 hPa
03:36 20.5 °C 12.2 °C 59 % 7 km/h (9 km/h) 0 mm0 mm 25.7 °C 26.1 °C 24.7 °C 23.2 °C 60000 m 0   0 cm 0 min 0 W/m² 1019.8 hPa
03:30 20.9 °C 12.1 °C 57 % 5 km/h (6 km/h) 0 mm0 mm 25.8 °C 26.1 °C 24.8 °C 23.2 °C 60000 m 0   0 cm 0 min 0 W/m² 1019.8 hPa
03:24 21.2 °C 11.5 °C 54 % 4 km/h (4 km/h) 0 mm0 mm 25.8 °C 26.1 °C 24.8 °C 23.2 °C 60000 m 0   0 cm 0 min 0 W/m² 1019.8 hPa
03:18 20.9 °C 11.8 °C 56 % 4 km/h (5 km/h) 0 mm0 mm 25.8 °C 26.1 °C 24.7 °C 23.2 °C 60000 m 0   0 cm 0 min 0 W/m² 1019.9 hPa
03:12 21.1 °C 12.5 °C 58 % 4 km/h (5 km/h) 0 mm0 mm 25.8 °C 26.2 °C 24.8 °C 23.2 °C 59090 m 0   0 cm 0 min 0 W/m² 1019.9 hPa
03:06 21.6 °C 11.6 °C 53 % 3 km/h (4 km/h) 0 mm0 mm 25.9 °C 26.2 °C 24.7 °C 23.2 °C 59090 m 0   0 cm 0 min 0 W/m² 1019.8 hPa
03:00 21.8 °C 11.2 °C 51 % 2 km/h (4 km/h) 0 mm0 mm 25.9 °C 26.2 °C 24.8 °C 23.2 °C 60000 m 0   0 cm 0 min 0 W/m² 1019.8 hPa
02:54 21.8 °C 10.9 °C 50 % 2 km/h (3 km/h) 0 mm0 mm 25.9 °C 26.2 °C 24.7 °C 23.2 °C 60000 m 0   0 cm 0 min 0 W/m² 1019.8 hPa
02:48 21.8 °C 11.2 °C 51 % 2 km/h (3 km/h) 0 mm0 mm 26 °C 26.2 °C 24.7 °C 23.2 °C 60000 m 0   0 cm 0 min 0 W/m² 1019.9 hPa
02:42 21.8 °C 11.5 °C 52 % 2 km/h (3 km/h) 0 mm0 mm 26 °C 26.3 °C 24.8 °C 23.2 °C 60000 m 0   0 cm 0 min 0 W/m² 1020 hPa
02:36 21.9 °C 11.3 °C 51 % 2 km/h (4 km/h) 0 mm0 mm 26 °C 26.3 °C 24.8 °C 23.3 °C 60000 m 0   0 cm 0 min 0 W/m² 1020 hPa
02:30 22.3 °C 10.8 °C 48 % 0 km/h (4 km/h) 0 mm0 mm 26.1 °C 26.3 °C 24.8 °C 23.2 °C 60000 m 0   0 cm 0 min 0 W/m² 1020 hPa
02:24 22.5 °C 11.6 °C 50 % 2 km/h (4 km/h) 0 mm0 mm 26.1 °C 26.3 °C 24.7 °C 23.2 °C 60000 m 0   0 cm 0 min 0 W/m² 1020 hPa
02:18 22.8 °C 10.6 °C 46 % 3 km/h (4 km/h) 0 mm0 mm 26.1 °C 26.3 °C 24.7 °C 23.2 °C 60000 m 0   0 cm 0 min 0 W/m² 1020.1 hPa
02:12 23.2 °C 9.9 °C 43 % 4 km/h (5 km/h) 0 mm0 mm 26.1 °C 26.3 °C 24.7 °C 23.2 °C 60000 m 0   0 cm 0 min 0 W/m² 1020 hPa
02:06 23.2 °C 10.3 °C 44 % 4 km/h (6 km/h) 0 mm0 mm 26.2 °C 26.3 °C 24.7 °C 23.2 °C 60000 m 0   0 cm 0 min 0 W/m² 1020 hPa
02:00 23.2 °C 10.3 °C 44 % 4 km/h (6 km/h) 0 mm0 mm 26.2 °C 26.4 °C 24.7 °C 23.2 °C 60000 m 0   0 cm 0 min 0 W/m² 1020.1 hPa
01:54 23.3 °C 10.4 °C 44 % 4 km/h (6 km/h) 0 mm0 mm 26.3 °C 26.4 °C 24.7 °C 23.2 °C 60000 m 0   0 cm 0 min 0 W/m² 1020.1 hPa
01:48 23 °C 10.1 °C 44 % 4 km/h (5 km/h) 0 mm0 mm 26.3 °C 26.4 °C 24.7 °C 23.2 °C 59390 m 0   0 cm 0 min 0 W/m² 1020 hPa
01:42 22.7 °C 11.1 °C 48 % 3 km/h (5 km/h) 0 mm0 mm 26.3 °C 26.4 °C 24.7 °C 23.2 °C 57150 m 0   0 cm 0 min 0 W/m² 1020.1 hPa
01:36 22.8 °C 11.5 °C 49 % 2 km/h (4 km/h) 0 mm0 mm 26.4 °C 26.4 °C 24.7 °C 23.2 °C 57690 m 0   0 cm 0 min 0 W/m² 1020.1 hPa
01:30 23 °C 11.4 °C 48 % 3 km/h (5 km/h) 0 mm0 mm 26.4 °C 26.4 °C 24.7 °C 23.2 °C 57330 m 0   0 cm 0 min 0 W/m² 1020.1 hPa
01:24 23.5 °C 10.9 °C 45 % 3 km/h (5 km/h) 0 mm0 mm 26.4 °C 26.5 °C 24.7 °C 23.2 °C 59410 m 0   0 cm 0 min 0 W/m² 1020 hPa
01:18 23.8 °C 10.8 °C 44 % 4 km/h (5 km/h) 0 mm0 mm 26.5 °C 26.5 °C 24.7 °C 23.2 °C 60000 m 0   0 cm 0 min 0 W/m² 1020 hPa
01:12 23.8 °C 11.1 °C 45 % 4 km/h (6 km/h) 0 mm0 mm 26.5 °C 26.5 °C 24.7 °C 23.2 °C 60000 m 0   0 cm 0 min 0 W/m² 1020 hPa
01:06 23.4 °C 10.8 °C 45 % 4 km/h (6 km/h) 0 mm0 mm 26.5 °C 26.5 °C 24.7 °C 23.2 °C 60000 m 0   0 cm 0 min 0 W/m² 1020.1 hPa
01:00 23.7 °C 11.1 °C 45 % 5 km/h (7 km/h) 0 mm0 mm 26.6 °C 26.5 °C 24.7 °C 23.2 °C 60000 m 0   0 cm 0 min 0 W/m² 1020.1 hPa
00:54 23.1 °C 10.8 °C 46 % 3 km/h (7 km/h) 0 mm0 mm 26.6 °C 26.6 °C 24.7 °C 23.2 °C 60000 m 0   0 cm 0 min 0 W/m² 1020.2 hPa
00:48 23.2 °C 11.6 °C 48 % 0 km/h (4 km/h) 0 mm0 mm 26.6 °C 26.6 °C 24.7 °C 23.2 °C 60000 m 0   0 cm 0 min 0 W/m² 1020.2 hPa
00:42 23.6 °C 10.6 °C 44 % 3 km/h (5 km/h) 0 mm0 mm 26.7 °C 26.6 °C 24.7 °C 23.2 °C 60000 m 0   0 cm 0 min 0 W/m² 1020.2 hPa
00:36 23.6 °C 11 °C 45 % 4 km/h (9 km/h) 0 mm0 mm 26.7 °C 26.6 °C 24.7 °C 23.2 °C 60000 m 0   0 cm 0 min 0 W/m² 1020.3 hPa
00:30 24 °C 11 °C 44 % 3 km/h (9 km/h) 0 mm0 mm 26.7 °C 26.6 °C 24.7 °C 23.2 °C 60000 m 0   0 cm 0 min 0 W/m² 1020.2 hPa
00:24 24.6 °C 10.5 °C 41 % 3 km/h (4 km/h) 0 mm0 mm 26.8 °C 26.6 °C 24.7 °C 23.2 °C 60000 m 0   0 cm 0 min 0 W/m² 1020.3 hPa
00:18 24.4 °C 10.3 °C 41 % 3 km/h (4 km/h) 0 mm0 mm 26.8 °C 26.7 °C 24.7 °C 23.2 °C 60000 m 0   0 cm 0 min 0 W/m² 1020.2 hPa
00:12 24.3 °C 10.2 °C 41 % 3 km/h (8 km/h) 0 mm0 mm 26.8 °C 26.7 °C 24.7 °C 23.2 °C 60000 m 0   0 cm 0 min 0 W/m² 1020.3 hPa
00:06 24.4 °C 10.7 °C 42 % 3 km/h (8 km/h) 0 mm0 mm 26.8 °C 26.7 °C 24.7 °C 23.2 °C 60000 m 0   0 cm 0 min 0 W/m² 1020.2 hPa
00:00 24.7 °C 10.6 °C 41 % 3 km/h (8 km/h) 0 mm0 mm 26.9 °C 26.7 °C 24.7 °C 23.2 °C 60000 m 0   0 cm 0 min 0 W/m² 1020.3 hPa

Données via Météo-France

Relevés météo à Toulouse-Blagnac

Cette page rassemble les observations de la station de Toulouse-Blagnac : température, humidité, vent, précipitations et pression atmosphérique. Les graphiques facilitent le suivi de la journée, tandis que le tableau donne accès aux mesures horaires et infra-horaires disponibles.

Pour replacer ces mesures dans leur contexte, consultez la climatologie de Toulouse-Blagnac ainsi que ses normales et records. Retrouvez aussi la carte des observations météo en temps réel.